Flight Track Log - Related Links

Times and Time Zones

All times are in EST time to prevent confusion due to time zone crossing. See the SWA240 flight status page for this flight to view local times or setup timezone preferences in your user account.

Time Position Orientation Groundspeed Altitude Reporting Facility
EST Latitude Longitude Course Direction KTS MPH feet Rate Location/Type
Sat 10:11:33 AM 28.0000 -82.5333 360° North 164 189 1,100  Level Tampa TRACON
Sat 10:12:16 AM 28.0333 -82.5333 360° North 195 224 2,900 3,412 Climbing Tampa TRACON
Sat 10:13:15 AM 28.1000 -82.5500 348° North 274 315 6,900 3,017 Climbing Tampa TRACON
Sat 10:15:17 AM 28.2436 -82.6217 336° Northwest 316 364 12,000 2,637 Climbing Jacksonville Center
Sat 10:16:17 AM 28.3250 -82.6686 333° Northwest 323 372 14,900 3,200 Climbing Jacksonville Center
Sat 10:17:17 AM 28.4106 -82.7178 333° Northwest 329 379 18,400 2,050 Climbing Jacksonville Center
Sat 10:18:17 AM 28.4983 -82.7697 333° Northwest 340 391 19,000 350 Climbing Jacksonville Center
Sat 10:19:17 AM 28.5903 -82.8169 336° Northwest 347 399 19,100 1,200 Climbing Jacksonville Center
Sat 10:20:17 AM 28.6947 -82.8547 342° North 353 406 21,400 2,900 Climbing Jacksonville Center
Sat 10:21:17 AM 28.7928 -82.8617 356° North 358 412 24,900 2,500 Climbing Jacksonville Center
Sat 10:22:17 AM 28.8992 -82.8925 346° North 376 433 26,400 1,950 Climbing Jacksonville Center
Sat 10:23:17 AM 28.9889 -82.9614 326° Northwest 376 433 28,800 2,350 Climbing Jacksonville Center
Sat 10:24:17 AM 29.0764 -83.0328 325° Northwest 383 441 31,100 1,600 Climbing Jacksonville Center
Sat 10:25:17 AM 29.1683 -83.1067 325° Northwest 394 453 32,000 400 Climbing Jacksonville Center
Sat 10:26:17 AM 29.2600 -83.1806 325° Northwest 405 466 31,900 650 Descending Jacksonville Center
Sat 10:27:17 AM 29.3494 -83.2500 326° Northwest 405 466 33,300 1,050 Climbing Jacksonville Center
Sat 10:28:17 AM 29.4392 -83.3219 325° Northwest 400 460 34,000 350 Climbing Jacksonville Center
Sat 10:29:17 AM 29.5286 -83.3961 324° Northwest 400 460 34,000 650 Level Jacksonville Center
Sat 10:30:17 AM 29.6200 -83.4658 326° Northwest 405 466 35,300 1,900 Climbing Jacksonville Center
Sat 10:31:17 AM 29.7075 -83.5381 324° Northwest 400 460 37,800 2,200 Climbing Jacksonville Center
Sat 10:32:17 AM 29.7928 -83.6058 325° Northwest 387 445 39,700 1,100 Climbing Jacksonville Center
Sat 10:33:17 AM 29.8736 -83.6733 324° Northwest 374 430 40,000 150 Climbing Jacksonville Center
Sat 10:34:17 AM 29.9589 -83.7389 326° Northwest 374 430 40,000  Level Jacksonville Center
Sat 10:35:17 AM 30.0439 -83.8092 324° Northwest 374 430 40,000  Level Jacksonville Center
Sat 10:36:17 AM 30.1269 -83.8747 326° Northwest 374 430 40,000  Level Jacksonville Center
Sat 10:37:17 AM 30.2100 -83.9431 325° Northwest 374 430 40,000  Level Jacksonville Center
Sat 10:38:17 AM 30.2950 -84.0114 325° Northwest 374 430 40,000  Level Jacksonville Center
Sat 10:39:17 AM 30.3800 -84.0822 324° Northwest 374 430 40,000  Level Jacksonville Center
Sat 10:40:17 AM 30.4628 -84.1506 325° Northwest 374 430 40,000  Level Jacksonville Center
Sat 10:41:17 AM 30.5456 -84.2192 324° Northwest 374 430 40,000  Level Jacksonville Center
Sat 10:42:17 AM 30.6283 -84.2856 325° Northwest 374 430 40,000  Level Jacksonville Center
Sat 10:43:17 AM 30.7133 -84.3592 323° Northwest 374 430 40,000  Level Jacksonville Center
Sat 10:44:17 AM 30.7981 -84.4308 324° Northwest 374 430 40,000  Level Jacksonville Center
Sat 10:45:17 AM 30.8828 -84.4975 326° Northwest 374 430 40,000 -350 Level Jacksonville Center
Sat 10:46:17 AM 30.9653 -84.5667 324° Northwest 374 430 39,300 -800 Descending Jacksonville Center
Sat 10:47:17 AM 31.0542 -84.6411 324° Northwest 380 437 38,400 -950 Descending Jacksonville Center
Sat 10:48:17 AM 31.1389 -84.7131 324° Northwest 380 437 37,400 -1,450 Descending Jacksonville Center
Sat 10:49:17 AM 31.2192 -84.7800 325° Northwest 369 425 35,500 -1,057 Descending Jacksonville Center
Sat 10:51:30 AM 31.4031 -84.9342 324° Northwest 365 420 34,000 -466 Descending Atlanta Center
Sat 10:52:30 AM 31.4861 -85.0056 324° Northwest 365 420 34,000  Level Atlanta Center
Sat 10:53:30 AM 31.5669 -85.0722 325° Northwest 365 420 34,000  Level Atlanta Center
Sat 10:54:30 AM 31.6458 -85.1414 323° Northwest 360 414 34,000  Level Atlanta Center
Sat 10:55:30 AM 31.7306 -85.2108 325° Northwest 365 420 34,000  Level Atlanta Center
Sat 10:56:30 AM 31.8114 -85.2803 324° Northwest 365 420 34,000 -300 Level Atlanta Center
Sat 10:57:30 AM 31.8961 -85.3475 326° Northwest 365 420 33,400 -800 Descending Atlanta Center
Sat 10:58:30 AM 31.9789 -85.4197 324° Northwest 365 420 32,400 -1,000 Descending Atlanta Center
Sat 10:59:30 AM 32.0594 -85.4872 325° Northwest 365 420 31,400 -950 Descending Atlanta Center
Sat 11:00:30 AM 32.1381 -85.5547 324° Northwest 358 412 30,500 -950 Descending Atlanta Center
Sat 11:01:30 AM 32.2167 -85.6222 324° Northwest 358 412 29,500 -1,000 Descending Atlanta Center
Sat 11:02:30 AM 32.2969 -85.6900 324° Northwest 363 418 28,500 -1,000 Descending Atlanta Center
Sat 11:03:30 AM 32.3775 -85.7606 324° Northwest 363 418 27,500 -1,050 Descending Atlanta Center
Sat 11:04:30 AM 32.4578 -85.8383 321° Northwest 358 412 26,400 -1,050 Descending Atlanta Center
Sat 11:05:30 AM 32.5464 -85.9067 327° Northwest 362 417 25,400 -1,000 Descending Atlanta Center
Sat 11:06:30 AM 32.6289 -85.9775 324° Northwest 367 422 24,400 -1,000 Descending Atlanta Center
Sat 11:07:30 AM 32.7092 -86.0483 323° Northwest 367 422 23,400 -1,000 Descending Atlanta Center
Sat 11:08:30 AM 32.7894 -86.1169 324° Northwest 362 417 22,400 -1,550 Descending Atlanta Center
Sat 11:09:30 AM 32.8656 -86.1856 323° Northwest 362 417 20,300 -2,100 Descending Atlanta Center
Sat 11:10:30 AM 32.9436 -86.2542 324° Northwest 362 417 18,200 -2,000 Descending Atlanta Center
Sat 11:11:30 AM 33.0175 -86.3181 324° Northwest 352 405 16,300 -2,029 Descending Atlanta Center
Sat 11:11:38 AM 33.0258 -86.3306 308° West 327 376 15,900 -2,235 Descending Atlanta Center
Sat 11:12:21 AM 33.0708 -86.3739 321° Northwest 307 353 14,400 -2,192 Descending Atlanta Center
Sat 11:12:30 AM 33.0875 -86.3769 351° North 325 374 14,000 -2,435 Descending Atlanta Center
Sat 11:13:30 AM 33.1531 -86.4356 323° Northwest 311 358 11,600 -1,850 Descending Atlanta Center
Sat 11:14:30 AM 33.2319 -86.4650 343° North 293 337 10,300 -1,327 Descending Atlanta Center
Sat 11:15:23 AM 33.2856 -86.4914 338° Northwest 253 291 9,100 -1,400 Descending Atlanta Center
Sat 11:15:30 AM 33.2981 -86.4919 358° North 270 311 8,900 -1,701 Descending Atlanta Center
Sat 11:16:30 AM 33.3603 -86.5111 346° North 259 298 7,200 -1,947 Descending Atlanta Center
Sat 11:17:24 AM 33.4244 -86.5378 341° North 247 284 5,200 -1,900 Descending Atlanta Center
Sat 11:17:30 AM 33.4244 -86.5353 90° East 254 292 5,300 -1,500 Climbing Atlanta Center
Sat 11:18:24 AM 33.4886 -86.5644 339° North 246 283 3,700 -1,500 Descending Atlanta Center
Sat 11:18:30 AM 33.4908 -86.5569 70° East 249 287 3,800 -689 Climbing Atlanta Center
Sat 11:19:25 AM 33.5467 -86.5886 335° Northwest 209 241 3,000 -700 Descending Atlanta Center
Sat 11:19:30 AM 33.5489 -86.5861 43° Northeast 237 273 3,100 -545 Climbing Atlanta Center
Sat 11:20:20 AM 33.5772 -86.6269 310° West 153 176 2,500 -700 Descending Atlanta Center
Sat 11:20:30 AM 33.5833 -86.6272 358° North 199 229 2,400 -200 Descending Atlanta Center
Sat 11:21:20 AM 33.6033 -86.6650 302° West 145 167 2,300 -100 Descending Atlanta Center
Sat 11:21:30 AM 33.6075 -86.6653 357° North 161 185 2,300 -689 Level Atlanta Center
Sat 11:22:21 AM 33.5944 -86.7022 247° West 116 133 1,600 -757 Descending Atlanta Center
Sat 11:23:21 AM 33.5769 -86.7342 237° Southwest 114 131 900 -700 Descending Atlanta Center
Sat 11:25:00 AM 33.5639 -86.7523 140° Southeast  Level Estimated

Login

Don't have an account? Register now (free) for customized features, flight alerts, and more!